createdAt,value
2019-06-15T00:02:13.751Z,6.77
2019-06-15T00:04:45.549Z,7.90
2019-06-15T00:07:18.274Z,7.03
2019-06-15T00:09:50.014Z,8.73
2019-06-15T00:12:21.716Z,8.93
2019-06-15T00:14:53.369Z,8.23
2019-06-15T00:17:25.088Z,6.10
2019-06-15T00:19:56.879Z,5.70
2019-06-15T00:22:28.532Z,6.73
2019-06-15T00:25:00.194Z,6.00
2019-06-15T00:27:31.825Z,7.50
2019-06-15T00:30:03.602Z,8.30
2019-06-15T00:32:35.345Z,6.40
2019-06-15T00:35:07.937Z,7.80
2019-06-15T00:37:39.611Z,8.13
2019-06-15T00:40:12.587Z,6.43
2019-06-15T00:42:44.268Z,11.50
2019-06-15T00:45:16.064Z,5.63
2019-06-15T00:47:48.834Z,5.60
2019-06-15T00:50:20.473Z,7.80
2019-06-15T00:52:52.214Z,5.03
2019-06-15T00:55:23.850Z,8.40
2019-06-15T00:57:55.574Z,7.40
2019-06-15T01:00:27.224Z,7.50
2019-06-15T01:02:58.905Z,5.00
2019-06-15T01:05:30.576Z,5.63
2019-06-15T01:08:02.296Z,6.63
2019-06-15T01:10:35.200Z,9.00
2019-06-15T01:13:06.961Z,8.17
2019-06-15T01:15:38.558Z,8.40
2019-06-15T01:18:10.240Z,6.40
2019-06-15T01:20:41.858Z,8.93
2019-06-15T01:23:13.544Z,6.53
2019-06-15T01:25:45.403Z,12.23
2019-06-15T01:28:17.132Z,6.30
2019-06-15T01:30:49.067Z,6.97
2019-06-15T01:33:21.831Z,10.63
2019-06-15T01:35:53.551Z,6.00
2019-06-15T01:38:25.266Z,7.87
2019-06-15T01:40:57.094Z,6.87
2019-06-15T01:43:32.400Z,8.80
2019-06-15T01:46:04.189Z,17.43
2019-06-15T01:48:35.848Z,4.73
2019-06-15T01:51:07.597Z,5.37
2019-06-15T01:53:39.247Z,7.87
2019-06-15T01:56:10.960Z,8.00
2019-06-15T01:58:42.605Z,6.43
2019-06-15T02:01:14.197Z,4.90
2019-06-15T02:03:45.940Z,6.90
2019-06-15T02:06:17.584Z,9.47
2019-06-15T02:08:49.195Z,6.90
2019-06-15T02:11:20.880Z,8.40
2019-06-15T02:13:52.510Z,7.70
2019-06-15T02:16:25.291Z,6.80
2019-06-15T02:18:56.927Z,9.60
2019-06-15T02:21:28.583Z,5.53
2019-06-15T02:24:00.251Z,8.03
2019-06-15T02:26:31.996Z,8.13
2019-06-15T02:29:03.583Z,7.03
2019-06-15T02:31:35.413Z,6.87
2019-06-15T02:34:07.052Z,13.57
2019-06-15T02:36:38.866Z,8.63
2019-06-15T02:39:10.522Z,6.07
2019-06-15T02:41:42.237Z,7.07
2019-06-15T02:44:14.120Z,7.57
2019-06-15T02:46:45.859Z,7.10
2019-06-15T02:49:17.585Z,7.67
2019-06-15T02:51:49.279Z,7.30
2019-06-15T02:54:20.948Z,6.13
2019-06-15T02:56:52.597Z,5.30
2019-06-15T02:59:24.263Z,5.83
2019-06-15T03:01:55.940Z,8.60
2019-06-15T03:04:27.619Z,10.03
2019-06-15T03:06:59.270Z,6.90
2019-06-15T03:09:31.142Z,7.13
2019-06-15T03:12:03.009Z,9.17
2019-06-15T03:14:34.659Z,6.53
2019-06-15T03:17:13.677Z,7.30
2019-06-15T03:19:45.448Z,9.10
2019-06-15T03:22:17.085Z,8.73
2019-06-15T03:24:48.767Z,8.03
2019-06-15T03:27:20.460Z,7.77
2019-06-15T03:29:52.116Z,7.60
2019-06-15T03:32:23.795Z,7.30
2019-06-15T03:34:55.438Z,9.43
2019-06-15T03:37:27.187Z,6.97
2019-06-15T03:39:58.990Z,7.50
2019-06-15T03:42:31.025Z,6.40
2019-06-15T03:45:02.704Z,10.20
2019-06-15T03:47:34.551Z,5.57
2019-06-15T03:50:06.365Z,5.77
2019-06-15T03:52:38.047Z,7.30
2019-06-15T03:55:12.690Z,6.47
2019-06-15T03:57:44.485Z,6.27
2019-06-15T04:00:47.295Z,8.30
2019-06-15T04:03:19.010Z,8.63
2019-06-15T04:05:50.657Z,7.60
2019-06-15T04:08:22.397Z,7.67
2019-06-15T04:10:54.018Z,7.73
2019-06-15T04:13:25.689Z,7.30
2019-06-15T04:15:57.359Z,10.80
2019-06-15T04:18:29.189Z,13.07
2019-06-15T04:21:00.835Z,8.67
2019-06-15T04:23:32.474Z,11.80
2019-06-15T04:26:04.119Z,10.43
2019-06-15T04:28:36.731Z,13.67
2019-06-15T04:31:08.419Z,11.43
2019-06-15T04:33:40.058Z,9.47
2019-06-15T04:36:11.729Z,12.33
2019-06-15T04:38:43.521Z,10.73
2019-06-15T04:41:15.223Z,10.37
2019-06-15T04:43:46.882Z,9.00
2019-06-15T04:46:18.524Z,11.73
2019-06-15T04:48:50.150Z,9.73
2019-06-15T04:51:21.969Z,10.60
2019-06-15T04:53:53.590Z,12.20
2019-06-15T04:56:25.428Z,13.87
2019-06-15T04:58:57.097Z,13.40
2019-06-15T05:01:28.745Z,10.47
2019-06-15T05:04:01.459Z,12.43
2019-06-15T05:06:36.252Z,13.23
2019-06-15T05:09:08.659Z,11.40
2019-06-15T05:11:40.426Z,12.20
2019-06-15T05:14:12.098Z,14.10
2019-06-15T05:16:43.928Z,14.73
2019-06-15T05:19:15.552Z,15.20
2019-06-15T05:21:47.283Z,13.10
2019-06-15T05:24:18.915Z,17.57
2019-06-15T05:27:02.969Z,13.13
2019-06-15T05:29:24.976Z,12.80
2019-06-15T05:31:56.694Z,17.03
2019-06-15T05:34:28.378Z,13.50
2019-06-15T05:37:00.100Z,13.33
2019-06-15T05:39:32.848Z,17.90
2019-06-15T05:42:04.609Z,13.97
2019-06-15T05:44:36.298Z,15.83
2019-06-15T05:47:08.979Z,16.77
2019-06-15T05:49:40.869Z,16.30
2019-06-15T05:52:12.531Z,17.23
2019-06-15T05:54:44.242Z,14.60
2019-06-15T05:57:21.494Z,14.03
2019-06-15T05:59:50.293Z,15.93
2019-06-15T06:02:24.728Z,15.93
2019-06-15T06:04:55.591Z,18.87
2019-06-15T06:07:27.282Z,18.00
2019-06-15T06:09:58.966Z,17.37
2019-06-15T06:12:32.600Z,18.30
2019-06-15T06:15:04.437Z,16.73
2019-06-15T06:17:36.209Z,21.27
2019-06-15T06:20:08.432Z,25.80
2019-06-15T06:22:40.162Z,17.77
2019-06-15T06:25:12.611Z,17.37
2019-06-15T06:27:46.390Z,17.80
2019-06-15T06:30:19.630Z,16.77
2019-06-15T06:32:51.358Z,15.93
2019-06-15T06:35:23.135Z,14.57
2019-06-15T06:37:54.858Z,16.60
2019-06-15T06:40:26.640Z,16.33
2019-06-15T06:42:58.328Z,16.57
2019-06-15T06:45:30.039Z,14.50
2019-06-15T06:48:01.893Z,16.87
2019-06-15T06:50:33.575Z,20.00
2019-06-15T06:53:05.262Z,18.37
2019-06-15T06:55:36.934Z,20.67
2019-06-15T06:58:08.609Z,20.03
2019-06-15T07:00:40.347Z,15.80
2019-06-15T07:03:12.170Z,23.43
2019-06-15T07:05:44.635Z,15.73
2019-06-15T07:08:16.382Z,18.00
2019-06-15T07:10:48.147Z,12.17
2019-06-15T07:13:19.849Z,17.87
2019-06-15T07:15:51.514Z,12.80
2019-06-15T07:18:23.166Z,10.13
2019-06-15T07:20:54.799Z,23.07
2019-06-15T07:23:26.477Z,12.67
2019-06-15T07:25:58.150Z,17.20
2019-06-15T07:28:29.806Z,12.53
2019-06-15T07:31:01.437Z,14.93
2019-06-15T07:33:33.100Z,11.80
2019-06-15T07:36:04.728Z,14.30
2019-06-15T07:38:36.482Z,17.13
2019-06-15T07:41:08.117Z,19.83
2019-06-15T07:43:39.856Z,13.90
2019-06-15T07:46:11.488Z,19.03
2019-06-15T07:48:43.217Z,19.17
2019-06-15T07:51:14.850Z,17.10
2019-06-15T07:53:46.564Z,15.43
2019-06-15T07:56:18.233Z,15.13
2019-06-15T07:58:49.886Z,12.80
2019-06-15T08:01:21.626Z,15.60
2019-06-15T08:03:53.343Z,15.13
2019-06-15T08:06:25.071Z,14.60
2019-06-15T08:08:56.843Z,19.23
2019-06-15T08:11:28.583Z,16.20
2019-06-15T08:14:00.310Z,16.07
2019-06-15T08:16:31.954Z,18.30
2019-06-15T08:19:03.705Z,16.53
2019-06-15T08:21:35.382Z,16.43
2019-06-15T08:24:07.049Z,15.30
2019-06-15T08:26:39.760Z,15.30
2019-06-15T08:29:11.439Z,16.80
2019-06-15T08:31:44.016Z,26.83
2019-06-15T08:34:15.697Z,15.83
2019-06-15T08:36:47.468Z,14.97
2019-06-15T08:39:19.231Z,17.80
2019-06-15T08:41:51.601Z,16.30
2019-06-15T08:44:23.282Z,14.57
2019-06-15T08:46:54.963Z,21.73
2019-06-15T08:49:26.660Z,15.30
2019-06-15T08:51:58.532Z,15.13
2019-06-15T08:54:30.189Z,17.27
2019-06-15T08:57:01.870Z,15.13
2019-06-15T08:59:34.705Z,16.50
2019-06-15T09:02:06.425Z,15.60
2019-06-15T09:04:38.172Z,15.20
2019-06-15T09:07:09.870Z,16.27
2019-06-15T09:09:41.923Z,14.40
2019-06-15T09:12:13.580Z,13.60
2019-06-15T09:14:45.330Z,16.90
2019-06-15T09:17:17.060Z,13.43
2019-06-15T09:19:48.754Z,19.23
2019-06-15T09:22:20.368Z,13.90
2019-06-15T09:24:52.081Z,15.47
2019-06-15T09:27:23.751Z,11.67
2019-06-15T09:29:55.411Z,13.70
2019-06-15T09:32:27.056Z,11.77
2019-06-15T09:34:58.755Z,11.40
2019-06-15T09:37:30.366Z,9.90
2019-06-15T09:40:02.207Z,11.30
2019-06-15T09:42:33.895Z,13.77
2019-06-15T09:45:06.020Z,8.37
2019-06-15T09:47:37.778Z,15.20
2019-06-15T09:50:09.647Z,8.87
2019-06-15T09:52:43.153Z,9.17
2019-06-15T09:55:14.959Z,8.73
2019-06-15T09:57:48.265Z,10.40
2019-06-15T10:00:21.746Z,15.33
2019-06-15T10:02:53.533Z,11.93
2019-06-15T10:05:25.208Z,11.67
2019-06-15T10:07:57.015Z,13.50
2019-06-15T10:10:28.692Z,11.97
2019-06-15T10:13:00.399Z,15.80
2019-06-15T10:15:33.111Z,16.83
2019-06-15T10:18:04.834Z,11.20
2019-06-15T10:20:36.513Z,15.30
2019-06-15T10:23:09.154Z,13.67
2019-06-15T10:25:41.597Z,8.80
2019-06-15T10:28:13.268Z,13.50
2019-06-15T10:30:44.972Z,9.13
2019-06-15T10:33:16.645Z,18.83
2019-06-15T10:35:48.372Z,18.23
2019-06-15T10:38:20.097Z,16.33
2019-06-15T10:40:51.934Z,8.53
2019-06-15T10:43:23.680Z,18.50
2019-06-15T10:45:55.508Z,12.33
2019-06-15T10:48:27.146Z,18.70
2019-06-15T10:50:58.849Z,11.90
2019-06-15T10:53:30.538Z,12.47
2019-06-15T10:56:02.209Z,14.33
2019-06-15T10:58:33.885Z,14.67
2019-06-15T11:01:05.686Z,9.00
2019-06-15T11:03:37.381Z,11.17
2019-06-15T11:06:09.103Z,9.47
2019-06-15T11:08:40.792Z,10.70
2019-06-15T11:11:23.001Z,10.17
2019-06-15T11:13:54.791Z,11.80
2019-06-15T11:16:26.977Z,9.60
2019-06-15T11:18:58.748Z,15.33
2019-06-15T11:21:30.764Z,10.80
2019-06-15T11:24:02.404Z,11.73
2019-06-15T11:26:34.311Z,12.47
2019-06-15T11:29:06.044Z,12.90
2019-06-15T11:31:37.678Z,11.53
2019-06-15T11:34:09.344Z,14.17
2019-06-15T11:36:41.160Z,11.40
2019-06-15T11:39:12.814Z,11.33
2019-06-15T11:41:44.538Z,13.40
2019-06-15T11:44:16.204Z,11.23
2019-06-15T11:46:47.943Z,12.37
2019-06-15T11:49:19.828Z,14.67
2019-06-15T11:51:51.561Z,11.70
2019-06-15T11:54:23.344Z,12.40
2019-06-15T11:56:55.115Z,22.53
2019-06-15T11:59:26.844Z,14.10
2019-06-15T12:01:58.583Z,16.00
2019-06-15T12:04:30.429Z,14.83
2019-06-15T12:07:02.112Z,15.53
2019-06-15T12:09:33.958Z,21.10
2019-06-15T12:12:05.748Z,12.17
2019-06-15T12:14:38.515Z,18.77
2019-06-15T12:17:10.400Z,12.50
2019-06-15T12:19:43.299Z,11.80
2019-06-15T12:22:15.231Z,16.80
2019-06-15T12:24:47.194Z,12.43
2019-06-15T12:27:18.999Z,15.37
2019-06-15T12:29:51.765Z,18.00
2019-06-15T12:32:25.805Z,18.90
2019-06-15T12:35:00.026Z,16.33
2019-06-15T12:37:31.816Z,15.83
2019-06-15T12:40:06.491Z,18.50
2019-06-15T12:42:38.510Z,15.60
2019-06-15T12:45:12.472Z,12.37
2019-06-15T12:47:44.569Z,21.13
2019-06-15T12:50:16.926Z,14.33
2019-06-15T12:52:48.869Z,18.33
2019-06-15T12:55:30.408Z,14.97
2019-06-15T12:58:04.520Z,16.00
2019-06-15T13:00:39.846Z,13.17
2019-06-15T13:03:11.849Z,16.10
2019-06-15T13:05:45.317Z,19.47
2019-06-15T13:08:17.192Z,19.23
2019-06-15T13:10:49.281Z,14.10
2019-06-15T13:13:22.007Z,14.00
2019-06-15T13:15:54.029Z,15.23
2019-06-15T13:18:25.884Z,16.87
2019-06-15T13:20:57.504Z,15.07
2019-06-15T13:23:30.590Z,19.07
2019-06-15T13:26:02.331Z,17.27
2019-06-15T13:28:33.968Z,21.77
2019-06-15T13:31:17.709Z,24.83
2019-06-15T13:33:38.976Z,26.83
2019-06-15T13:36:12.551Z,28.50
2019-06-15T13:38:44.501Z,28.80
2019-06-15T13:41:16.266Z,26.23
2019-06-15T13:43:50.956Z,33.40
2019-06-15T13:46:22.608Z,29.90
2019-06-15T13:48:55.045Z,26.33
2019-06-15T13:51:26.727Z,29.00
2019-06-15T13:53:58.490Z,32.80
2019-06-15T13:56:32.830Z,28.63
2019-06-15T13:59:04.692Z,28.27
2019-06-15T14:01:38.800Z,26.50
2019-06-15T14:04:10.593Z,26.37
2019-06-15T14:06:42.386Z,27.13
2019-06-15T14:09:14.032Z,29.70
2019-06-15T14:11:45.744Z,24.83
2019-06-15T14:14:17.429Z,30.70
2019-06-15T14:16:49.070Z,34.90
2019-06-15T14:19:20.730Z,25.00
2019-06-15T14:21:52.393Z,30.00
2019-06-15T14:24:24.115Z,21.63
2019-06-15T14:26:55.901Z,22.97
2019-06-15T14:29:29.300Z,22.00
2019-06-15T14:32:02.736Z,21.73
2019-06-15T14:34:37.310Z,21.80
2019-06-15T14:37:09.452Z,17.90
2019-06-15T14:39:41.507Z,16.73
2019-06-15T14:42:13.346Z,16.07
2019-06-15T14:44:46.470Z,15.43
2019-06-15T14:47:18.323Z,12.80
2019-06-15T14:49:50.009Z,12.00
2019-06-15T14:52:21.637Z,10.17
2019-06-15T14:54:53.294Z,10.90
2019-06-15T14:57:27.290Z,10.90
2019-06-15T15:00:04.637Z,11.20
2019-06-15T15:02:32.503Z,9.57
2019-06-15T15:05:06.713Z,9.23
2019-06-15T15:07:37.516Z,9.90
2019-06-15T15:10:10.982Z,10.33
2019-06-15T15:12:42.647Z,12.73
2019-06-15T15:15:16.893Z,12.50
2019-06-15T15:17:47.707Z,8.83
2019-06-15T15:20:19.545Z,9.33
2019-06-15T15:22:51.369Z,7.20
2019-06-15T15:25:26.392Z,11.03
2019-06-15T15:27:58.258Z,8.20
2019-06-15T15:30:43.123Z,10.33
2019-06-15T15:33:14.747Z,5.53
2019-06-15T15:35:46.790Z,8.50
2019-06-15T15:38:18.540Z,7.27
2019-06-15T15:40:56.007Z,7.60
2019-06-15T15:43:28.594Z,9.37
2019-06-15T15:46:00.306Z,6.63
2019-06-15T15:48:32.000Z,4.97
2019-06-15T15:51:06.355Z,11.63
2019-06-15T15:53:38.120Z,4.97
2019-06-15T15:56:09.780Z,7.73
2019-06-15T15:58:46.880Z,8.77
2019-06-15T16:01:18.006Z,5.20
2019-06-15T16:03:52.848Z,8.17
2019-06-15T16:06:26.060Z,5.20
2019-06-15T16:08:59.772Z,12.30
2019-06-15T16:11:31.985Z,8.63
2019-06-15T16:14:03.616Z,5.30
2019-06-15T16:16:36.484Z,12.27
2019-06-15T16:19:08.561Z,7.53
2019-06-15T16:21:40.279Z,6.93
2019-06-15T16:24:11.942Z,8.00
2019-06-15T16:26:46.429Z,8.70
2019-06-15T16:29:17.380Z,8.77
2019-06-15T16:31:49.275Z,6.97
2019-06-15T16:34:20.983Z,5.70
2019-06-15T16:36:52.757Z,7.53
2019-06-15T16:39:26.782Z,6.80
2019-06-15T16:41:58.976Z,13.03
2019-06-15T16:44:30.636Z,7.80
2019-06-15T16:47:02.397Z,7.03
2019-06-15T16:49:36.319Z,25.63
2019-06-15T16:52:07.693Z,6.23
2019-06-15T16:54:41.393Z,6.33
2019-06-15T16:57:16.172Z,5.10
2019-06-15T16:59:47.942Z,8.80
2019-06-15T17:02:19.630Z,9.23
2019-06-15T17:04:54.015Z,8.37
2019-06-15T17:07:26.274Z,5.10
2019-06-15T17:09:58.262Z,5.20
2019-06-15T17:12:30.151Z,13.77
2019-06-15T17:15:06.629Z,7.57
2019-06-15T17:17:38.087Z,10.27
2019-06-15T17:20:12.649Z,8.30
2019-06-15T17:22:47.082Z,8.20
2019-06-15T17:25:17.652Z,4.67
2019-06-15T17:27:49.477Z,13.10
2019-06-15T17:30:21.374Z,7.10
2019-06-15T17:32:53.182Z,5.20
2019-06-15T17:35:27.226Z,7.50
2019-06-15T17:37:58.422Z,8.43
2019-06-15T17:40:30.229Z,10.43
2019-06-15T17:43:06.447Z,7.47
2019-06-15T17:45:40.033Z,9.93
2019-06-15T17:48:12.049Z,10.53
2019-06-15T17:50:44.596Z,9.60
2019-06-15T17:53:17.545Z,8.07
2019-06-15T17:55:52.494Z,10.47
2019-06-15T17:58:36.971Z,10.63
2019-06-15T18:01:10.492Z,6.13
2019-06-15T18:03:54.228Z,4.73
2019-06-15T18:06:23.020Z,4.80
2019-06-15T18:08:58.500Z,6.90
2019-06-15T18:11:30.526Z,16.53
2019-06-15T18:14:02.277Z,3.03
2019-06-15T18:16:36.973Z,5.90
2019-06-15T18:19:09.348Z,4.33
2019-06-15T18:21:47.025Z,4.70
2019-06-15T18:24:23.077Z,5.83
2019-06-15T18:26:57.215Z,7.40
2019-06-15T18:29:36.681Z,7.70
2019-06-15T18:32:11.492Z,10.30
2019-06-15T18:34:49.523Z,4.70
2019-06-15T18:37:24.663Z,5.73
2019-06-15T18:40:06.461Z,6.53
2019-06-15T18:42:37.017Z,5.70
2019-06-15T18:45:12.409Z,4.93
2019-06-15T18:47:47.178Z,6.10
2019-06-15T18:50:32.592Z,7.50
2019-06-15T18:53:07.146Z,4.77
2019-06-15T18:55:40.228Z,4.00
2019-06-15T18:58:26.305Z,8.27
2019-06-15T19:01:00.581Z,4.77
2019-06-15T19:03:37.257Z,11.97
2019-06-15T19:06:08.477Z,4.03
2019-06-15T19:08:40.418Z,4.03
2019-06-15T19:11:13.295Z,4.00
2019-06-15T19:13:56.463Z,3.97
2019-06-15T19:16:28.737Z,2.53
2019-06-15T19:19:01.540Z,4.20
2019-06-15T19:21:35.751Z,3.10
2019-06-15T19:24:23.048Z,3.03
2019-06-15T19:26:58.662Z,4.10
2019-06-15T19:29:46.837Z,3.23
2019-06-15T19:32:22.346Z,4.80
2019-06-15T19:34:58.593Z,2.67
2019-06-15T19:37:41.387Z,5.10
2019-06-15T19:40:17.670Z,4.67
2019-06-15T19:42:54.048Z,2.70
2019-06-15T19:45:27.169Z,2.87
2019-06-15T19:47:59.725Z,4.03
2019-06-15T19:50:46.262Z,5.93
2019-06-15T19:53:22.293Z,3.60
2019-06-15T19:56:32.151Z,4.93
2019-06-15T19:59:06.898Z,4.60
2019-06-15T20:02:02.584Z,3.50
2019-06-15T20:04:36.195Z,2.90
2019-06-15T20:07:11.376Z,4.60
2019-06-15T20:09:46.115Z,2.93
2019-06-15T20:12:22.129Z,3.60
2019-06-15T20:14:56.589Z,3.80
2019-06-15T20:17:33.526Z,3.57
2019-06-15T20:20:06.995Z,5.50
2019-06-15T20:22:38.864Z,3.40
2019-06-15T20:25:10.900Z,4.00
2019-06-15T20:27:46.709Z,6.37
2019-06-15T20:30:20.763Z,3.20
2019-06-15T20:32:53.638Z,3.40
2019-06-15T20:35:59.541Z,3.60
2019-06-15T20:38:40.491Z,2.80
2019-06-15T20:41:36.396Z,3.83
2019-06-15T20:44:38.434Z,5.30
2019-06-15T20:47:11.798Z,2.30
2019-06-15T20:49:47.603Z,3.17
2019-06-15T20:52:19.941Z,5.43
2019-06-15T20:54:53.080Z,3.90
2019-06-15T20:57:26.410Z,6.77
2019-06-15T21:00:09.649Z,3.93
2019-06-15T21:02:43.767Z,4.17
2019-06-15T21:05:32.570Z,3.10
2019-06-15T21:07:49.604Z,7.07
2019-06-15T21:10:22.350Z,3.90
2019-06-15T21:12:54.133Z,4.20
2019-06-15T21:15:30.480Z,4.73
2019-06-15T21:18:02.384Z,2.50
2019-06-15T21:20:36.367Z,2.97
2019-06-15T21:23:07.839Z,9.03
2019-06-15T21:25:39.546Z,8.20
2019-06-15T21:28:16.696Z,4.83
2019-06-15T21:30:48.273Z,4.10
2019-06-15T21:33:29.336Z,3.47
2019-06-15T21:36:10.294Z,3.90
2019-06-15T21:38:42.175Z,4.20
2019-06-15T21:41:16.543Z,5.00
2019-06-15T21:43:47.412Z,8.00
2019-06-15T21:46:19.207Z,3.50
2019-06-15T21:48:51.094Z,4.50
2019-06-15T21:51:23.123Z,5.50
2019-06-15T21:53:55.998Z,3.20
2019-06-15T21:56:29.132Z,3.53
2019-06-15T21:59:01.410Z,4.53
2019-06-15T22:01:37.590Z,7.10
2019-06-15T22:04:09.636Z,5.13
2019-06-15T22:06:41.525Z,6.03
2019-06-15T22:09:13.729Z,5.30
2019-06-15T22:11:47.060Z,5.17
2019-06-15T22:14:19.096Z,6.27
2019-06-15T22:16:50.777Z,6.90
2019-06-15T22:19:22.465Z,6.00
2019-06-15T22:21:54.140Z,6.50
2019-06-15T22:24:26.795Z,7.43
2019-06-15T22:26:58.600Z,5.50
2019-06-15T22:29:30.189Z,5.27
2019-06-15T22:32:01.917Z,6.00
2019-06-15T22:34:36.263Z,8.10
2019-06-15T22:37:08.530Z,6.40
2019-06-15T22:39:40.205Z,6.77
2019-06-15T22:42:12.131Z,6.50
2019-06-15T22:44:46.262Z,4.83
2019-06-15T22:47:17.585Z,4.97
2019-06-15T22:49:50.508Z,5.93
2019-06-15T22:52:36.485Z,3.90
2019-06-15T22:55:08.235Z,6.33
2019-06-15T22:57:43.176Z,9.13
2019-06-15T23:00:17.133Z,6.43
2019-06-15T23:02:48.537Z,8.33
2019-06-15T23:05:23.394Z,6.47
2019-06-15T23:08:16.155Z,4.70
2019-06-15T23:11:08.209Z,6.80
2019-06-15T23:13:46.178Z,5.10
2019-06-15T23:16:47.460Z,5.70
2019-06-15T23:19:29.963Z,4.50
2019-06-15T23:22:01.633Z,8.10
2019-06-15T23:24:36.325Z,6.80
2019-06-15T23:27:09.929Z,6.63
2019-06-15T23:29:46.102Z,5.97
2019-06-15T23:32:23.314Z,4.67
2019-06-15T23:34:56.519Z,5.37
2019-06-15T23:37:28.287Z,6.00
2019-06-15T23:40:26.914Z,6.13
2019-06-15T23:42:58.794Z,4.50
2019-06-15T23:45:58.262Z,5.07
2019-06-15T23:48:29.996Z,8.50
2019-06-15T23:51:01.908Z,10.77
2019-06-15T23:53:40.358Z,8.83
2019-06-15T23:56:12.237Z,6.17
2019-06-15T23:58:48.388Z,6.60
